Jessica S. Settoon — WDD9545 — position and weather

sailwx.info

Track history (hours):
 
Tides and Currents Weather Stations Pressure Air Temp Water Temp Dewpoint Dewpoint Depression Visibility Wind Speed Wind Dir Waves Ship Positions

Jessica S. Settoon

Owner: Settoon Towing LLC, Houma, LA. More information available from US FCC via Universal Licensing System and Coast Guard Vessel Documentation Center.

Last reported at 2016-Nov-22 23:16 UTC. Time now 2016-Dec-05 04:30 UTC.
Position N 29°46' W 091°45'.
Warning: this ship's position is 12 days out of date.

Length 17 m; draft 3 m.

Type: Tug. MMSI: 367312940.

Date/timePositionNaut miles runAvg speedWind from/ knotsBaromVisibWave heightAir tempDewpointWater temp
2016-Nov-22 23:16N 29°46' W 091°45'5 6.2
2016-Nov-22 22:27N 29°49' W 091°49'11 5.9
2016-Nov-22 20:33N 29°49' W 092°02'6 5.7
2016-Nov-22 19:33N 29°46' W 092°08'8 3.8
2016-Nov-22 17:33N 29°41' W 092°02'0 0.0
2016-Nov-22 16:33N 29°41' W 092°02'0 0.0
2016-Nov-22 15:33N 29°41' W 092°02'0 0.0
2016-Nov-22 14:33N 29°41' W 092°02'0 0.0
2016-Nov-22 13:33N 29°41' W 092°02'0 0.0
2016-Nov-22 10:33N 29°41' W 092°02'0 0.0
2016-Nov-22 09:33N 29°41' W 092°02'0 0.0
2016-Nov-22 08:33N 29°41' W 092°02'0 0.0
2016-Nov-22 07:33N 29°41' W 092°02'0 0.0
2016-Nov-22 05:33N 29°41' W 092°02'0 0.0
2016-Nov-22 04:33N 29°41' W 092°02'0 0.0
2016-Nov-22 03:33N 29°41' W 092°02'0 0.0
2016-Nov-22 02:33N 29°41' W 092°02'0 0.0
2016-Nov-21 23:33N 29°41' W 092°02'0 0.0
2016-Nov-21 21:32N 29°41' W 092°02'3 0.5
2016-Nov-21 14:33N 29°43' W 092°05'5 5.2
2016-Nov-21 13:33N 29°47' W 092°07'7 6.9
2016-Nov-21 12:33N 29°50' W 091°60'0 0.1
2016-Nov-21 11:33N 29°50' W 091°59'0 0.0
2016-Nov-21 10:32N 29°50' W 091°59'0 0.0
2016-Nov-21 08:33N 29°50' W 091°59'0 0.0
2016-Nov-21 07:33N 29°50' W 091°59'0 0.0
2016-Nov-21 05:33N 29°50' W 091°59'0 0.0
2016-Nov-21 04:33N 29°50' W 091°59'0 0.0
2016-Nov-21 02:33N 29°50' W 091°59'  
2016-Nov-13 23:10N 29°49' W 091°49'3 5.0
2016-Nov-13 22:33N 29°51' W 091°52'7 2.2
2016-Nov-13 19:33N 29°50' W 091°59'0 0.0
2016-Nov-13 18:33N 29°50' W 091°59'0 0.0
2016-Nov-13 17:33N 29°50' W 091°59'0 0.0
2016-Nov-13 15:33N 29°50' W 091°59'0 0.0
2016-Nov-13 13:33N 29°50' W 091°59'0 0.0
2016-Nov-13 10:33N 29°50' W 091°59'0 0.0
2016-Nov-13 08:33N 29°50' W 091°59'0 0.0
2016-Nov-13 05:33N 29°50' W 091°59'0 0.0
2016-Nov-13 03:33N 29°50' W 091°59'  
Track history (hours):
 
Tides and Currents Weather Stations Pressure Air Temp Water Temp Dewpoint Dewpoint Depression Visibility Wind Speed Wind Dir Waves Ship Positions

Jessica S. Settoon

Owner: Settoon Towing LLC, Houma, LA. More information available from US FCC via Universal Licensing System and Coast Guard Vessel Documentation Center.

Last reported at 2016-Nov-22 23:16 UTC. Time now 2016-Dec-05 04:30 UTC.
Position N 29°46' W 091°45'.
Warning: this ship's position is 12 days out of date.

Length 17 m; draft 3 m.

Type: Tug. MMSI: 367312940.

Date/timePositionNaut miles runAvg speedWind from/ knotsBaromVisibWave heightAir tempDewpointWater temp
2016-Nov-22 23:16N 29°46' W 091°45'5 6.2
2016-Nov-22 22:27N 29°49' W 091°49'11 5.9
2016-Nov-22 20:33N 29°49' W 092°02'6 5.7
2016-Nov-22 19:33N 29°46' W 092°08'8 3.8
2016-Nov-22 17:33N 29°41' W 092°02'0 0.0
2016-Nov-22 16:33N 29°41' W 092°02'0 0.0
2016-Nov-22 15:33N 29°41' W 092°02'0 0.0
2016-Nov-22 14:33N 29°41' W 092°02'0 0.0
2016-Nov-22 13:33N 29°41' W 092°02'0 0.0
2016-Nov-22 10:33N 29°41' W 092°02'0 0.0
2016-Nov-22 09:33N 29°41' W 092°02'0 0.0
2016-Nov-22 08:33N 29°41' W 092°02'0 0.0
2016-Nov-22 07:33N 29°41' W 092°02'0 0.0
2016-Nov-22 05:33N 29°41' W 092°02'0 0.0
2016-Nov-22 04:33N 29°41' W 092°02'0 0.0
2016-Nov-22 03:33N 29°41' W 092°02'0 0.0
2016-Nov-22 02:33N 29°41' W 092°02'0 0.0
2016-Nov-21 23:33N 29°41' W 092°02'0 0.0
2016-Nov-21 21:32N 29°41' W 092°02'3 0.5
2016-Nov-21 14:33N 29°43' W 092°05'5 5.2
2016-Nov-21 13:33N 29°47' W 092°07'7 6.9
2016-Nov-21 12:33N 29°50' W 091°60'0 0.1
2016-Nov-21 11:33N 29°50' W 091°59'0 0.0
2016-Nov-21 10:32N 29°50' W 091°59'0 0.0
2016-Nov-21 08:33N 29°50' W 091°59'0 0.0
2016-Nov-21 07:33N 29°50' W 091°59'0 0.0
2016-Nov-21 05:33N 29°50' W 091°59'0 0.0
2016-Nov-21 04:33N 29°50' W 091°59'0 0.0
2016-Nov-21 02:33N 29°50' W 091°59'  
2016-Nov-13 23:10N 29°49' W 091°49'3 5.0
2016-Nov-13 22:33N 29°51' W 091°52'7 2.2
2016-Nov-13 19:33N 29°50' W 091°59'0 0.0
2016-Nov-13 18:33N 29°50' W 091°59'0 0.0
2016-Nov-13 17:33N 29°50' W 091°59'0 0.0
2016-Nov-13 15:33N 29°50' W 091°59'0 0.0
2016-Nov-13 13:33N 29°50' W 091°59'0 0.0
2016-Nov-13 10:33N 29°50' W 091°59'0 0.0
2016-Nov-13 08:33N 29°50' W 091°59'0 0.0
2016-Nov-13 05:33N 29°50' W 091°59'0 0.0
2016-Nov-13 03:33N 29°50' W 091°59'  

Dump ship's entire track history